Time;durP1;ratioP1;P1;durP2;ratioP2;P2;SDS_P1;SDS_P2;PMS_P1;PMS_P2;Temp;Humidity;BMP_temperature;BMP_pressure;BME280_temperature;BME280_humidity;BME280_pressure;Samples;Min_cycle;Max_cycle;Signal;HPM_P1;HPM_P2
2021/01/22 00:01:33;;;;;;;26.20;10.27;;;;;;;;;;4897042;29;20028;-23
2021/01/22 00:03:59;;;;;;;22.38;9.20;;;;;;;;;;4897282;29;20044;-23
2021/01/22 00:06:24;;;;;;;41.60;17.77;;;;;;;;;;4880231;29;20032;-24
2021/01/22 00:08:50;;;;;;;17.20;8.73;;;;;;;;;;4896815;29;20036;-23
2021/01/22 00:11:15;;;;;;;28.45;11.18;;;;;;;;;;4895688;29;20036;-24
2021/01/22 00:13:41;;;;;;;36.42;14.25;;;;;;;;;;4880040;29;20088;-24
2021/01/22 00:16:06;;;;;;;43.45;21.88;;;;;;;;;;4898321;29;20045;-23
2021/01/22 00:18:32;;;;;;;33.33;13.38;;;;;;;;;;4900522;29;20039;-23
2021/01/22 00:20:58;;;;;;;40.85;18.85;;;;;;;;;;4900578;29;20116;-23
2021/01/22 00:23:23;;;;;;;12.65;5.40;;;;;;;;;;4900489;29;20472;-23
2021/01/22 00:25:49;;;;;;;41.72;19.38;;;;;;;;;;4900365;29;20052;-24
2021/01/22 00:28:14;;;;;;;38.30;17.65;;;;;;;;;;4900451;29;20036;-24
2021/01/22 00:30:40;;;;;;;32.30;13.73;;;;;;;;;;4900070;29;20052;-23
2021/01/22 00:33:05;;;;;;;28.55;12.65;;;;;;;;;;4900418;29;20039;-23
2021/01/22 00:35:30;;;;;;;36.38;14.52;;;;;;;;;;4883271;29;20066;-24
2021/01/22 00:37:56;;;;;;;36.78;16.80;;;;;;;;;;4900059;29;20076;-23
2021/01/22 00:40:21;;;;;;;37.88;19.15;;;;;;;;;;4900284;29;20044;-22
2021/01/22 00:42:46;;;;;;;33.28;14.13;;;;;;;;;;4900281;29;20085;-23
2021/01/22 00:45:12;;;;;;;54.78;26.13;;;;;;;;;;4900092;29;20149;-23
2021/01/22 00:47:37;;;;;;;26.63;13.25;;;;;;;;;;4900026;29;20071;-23
2021/01/22 00:50:04;;;;;;;33.38;15.80;;;;;;;;;;4900035;29;20055;-23
2021/01/22 00:52:29;;;;;;;37.90;16.48;;;;;;;;;;4899906;29;20060;-23
2021/01/22 00:54:55;;;;;;;29.52;13.13;;;;;;;;;;4883167;29;20087;-23
2021/01/22 00:57:43;;;;;;;28.35;12.38;;;;;;;;;;4887169;29;20048;-23
2021/01/22 01:00:10;;;;;;;42.88;19.20;;;;;;;;;;4882987;29;20570;-24
2021/01/22 01:02:43;;;;;;;32.25;13.45;;;;;;;;;;4898398;29;20111;-23
2021/01/22 01:05:08;;;;;;;31.65;13.35;;;;;;;;;;4882844;29;20127;-23
2021/01/22 01:07:34;;;;;;;23.88;10.88;;;;;;;;;;4898355;29;20045;-23
2021/01/22 01:10:00;;;;;;;34.03;15.02;;;;;;;;;;4898449;29;20020;-23
2021/01/22 01:12:44;;;;;;;32.20;14.57;;;;;;;;;;4899813;29;20087;-23
2021/01/22 01:15:38;;;;;;;33.53;13.25;;;;;;;;;;4899426;29;20055;-24
2021/01/22 01:18:03;;;;;;;34.97;15.48;;;;;;;;;;4899635;29;20108;-23
2021/01/22 01:20:29;;;;;;;33.55;16.27;;;;;;;;;;4882484;29;20036;-24
2021/01/22 01:22:54;;;;;;;32.40;13.77;;;;;;;;;;4882643;29;20168;-23
2021/01/22 01:25:19;;;;;;;32.88;14.95;;;;;;;;;;4882879;29;20028;-23
2021/01/22 01:27:45;;;;;;;32.65;12.85;;;;;;;;;;4897986;29;20034;-23
2021/01/22 01:30:10;;;;;;;40.22;18.65;;;;;;;;;;4899325;29;20459;-23
2021/01/22 01:32:35;;;;;;;26.23;11.85;;;;;;;;;;4882482;29;20040;-23
2021/01/22 01:35:01;;;;;;;25.23;11.50;;;;;;;;;;4899264;29;20111;-22
2021/01/22 01:37:26;;;;;;;30.60;14.55;;;;;;;;;;4899056;29;20506;-23
2021/01/22 01:39:52;;;;;;;23.02;8.10;;;;;;;;;;4899181;29;20096;-24
2021/01/22 01:42:17;;;;;;;23.95;10.68;;;;;;;;;;4899383;29;20043;-23
2021/01/22 01:44:42;;;;;;;28.52;12.95;;;;;;;;;;4899251;29;20131;-23
2021/01/22 01:47:08;;;;;;;33.33;13.75;;;;;;;;;;4882236;29;20016;-23
2021/01/22 01:49:33;;;;;;;30.95;14.48;;;;;;;;;;4881977;29;20039;-23
2021/01/22 01:51:59;;;;;;;25.15;12.18;;;;;;;;;;4897636;29;20036;-23
2021/01/22 01:54:24;;;;;;;24.00;10.40;;;;;;;;;;4898951;29;20040;-23
2021/01/22 01:56:50;;;;;;;7.57;4.30;;;;;;;;;;4898626;29;20120;-24
2021/01/22 01:59:16;;;;;;;17.90;9.93;;;;;;;;;;4897612;29;20040;-24
2021/01/22 02:01:43;;;;;;;23.52;12.85;;;;;;;;;;4898708;29;20029;-23
2021/01/22 02:04:08;;;;;;;27.35;11.27;;;;;;;;;;4898680;29;20065;-23
2021/01/22 02:06:33;;;;;;;33.63;14.90;;;;;;;;;;4881829;29;20033;-25
2021/01/22 02:09:00;;;;;;;36.05;14.75;;;;;;;;;;4898613;29;20476;-23
2021/01/22 02:11:26;;;;;;;27.02;11.55;;;;;;;;;;4882021;29;20067;-24
2021/01/22 02:13:52;;;;;;;17.42;9.43;;;;;;;;;;4898739;29;20476;-23
2021/01/22 02:16:18;;;;;;;26.30;11.98;;;;;;;;;;4898416;29;20051;-24
2021/01/22 02:18:44;;;;;;;20.50;9.80;;;;;;;;;;4898450;29;20028;-24
2021/01/22 02:21:30;;;;;;;21.92;9.25;;;;;;;;;;4898354;29;20068;-23
2021/01/22 02:24:05;;;;;;;18.15;8.50;;;;;;;;;;4898341;29;20035;-23
2021/01/22 02:26:30;;;;;;;15.38;8.45;;;;;;;;;;4898196;29;20084;-23
2021/01/22 02:28:58;;;;;;;23.90;13.00;;;;;;;;;;4881476;29;20436;-24
2021/01/22 02:31:24;;;;;;;25.63;12.02;;;;;;;;;;4898113;29;20131;-24
2021/01/22 02:33:50;;;;;;;23.58;11.15;;;;;;;;;;4898149;29;20373;-24
2021/01/22 02:36:19;;;;;;;21.25;9.70;;;;;;;;;;4898095;29;20044;-24
2021/01/22 02:38:46;;;;;;;19.60;9.88;;;;;;;;;;4880715;29;20032;-25
2021/01/22 02:41:14;;;;;;;24.10;11.20;;;;;;;;;;4898056;29;20055;-24
2021/01/22 02:43:39;;;;;;;25.55;10.77;;;;;;;;;;4897935;29;20049;-24
2021/01/22 02:46:05;;;;;;;23.98;11.57;;;;;;;;;;4881514;29;20072;-24
2021/01/22 02:48:32;;;;;;;17.83;9.20;;;;;;;;;;4896603;29;20025;-24
2021/01/22 02:50:57;;;;;;;18.58;5.95;;;;;;;;;;4898018;29;20033;-23
2021/01/22 02:53:23;;;;;;;20.92;8.88;;;;;;;;;;4881017;29;20569;-24
2021/01/22 02:55:50;;;;;;;15.15;8.20;;;;;;;;;;4897693;29;20487;-23
2021/01/22 02:58:21;;;;;;;16.35;7.35;;;;;;;;;;4897876;29;20028;-23
2021/01/22 03:00:48;;;;;;;19.45;9.07;;;;;;;;;;4880730;29;20037;-24
2021/01/22 03:03:17;;;;;;;20.15;8.60;;;;;;;;;;4897710;29;20029;-24
2021/01/22 03:05:43;;;;;;;20.45;9.40;;;;;;;;;;4897670;29;20116;-23
2021/01/22 03:08:16;;;;;;;21.42;10.35;;;;;;;;;;4897885;29;20563;-23
2021/01/22 03:10:43;;;;;;;12.10;7.13;;;;;;;;;;4896250;29;20036;-23
2021/01/22 03:13:10;;;;;;;21.60;8.85;;;;;;;;;;4880873;29;20036;-23
2021/01/22 03:15:35;;;;;;;18.45;8.10;;;;;;;;;;4897352;29;20040;-22
2021/01/22 03:18:11;;;;;;;23.85;10.15;;;;;;;;;;4897827;29;20091;-23
2021/01/22 03:20:37;;;;;;;15.70;8.25;;;;;;;;;;4897276;29;20040;-23
2021/01/22 03:23:03;;;;;;;15.00;7.05;;;;;;;;;;4897492;29;20036;-24
2021/01/22 03:25:29;;;;;;;17.27;9.40;;;;;;;;;;4897303;29;20037;-24
2021/01/22 03:27:55;;;;;;;20.83;8.27;;;;;;;;;;4880517;29;20044;-24
2021/01/22 03:30:21;;;;;;;17.70;6.95;;;;;;;;;;4896271;29;20229;-23
2021/01/22 03:32:46;;;;;;;15.70;7.63;;;;;;;;;;4897047;29;20515;-24
2021/01/22 03:35:11;;;;;;;19.77;8.48;;;;;;;;;;4897272;29;20037;-24
2021/01/22 03:37:37;;;;;;;11.88;5.80;;;;;;;;;;4897038;29;20135;-24
2021/01/22 03:40:02;;;;;;;26.92;8.23;;;;;;;;;;4897246;29;20066;-23
2021/01/22 03:42:28;;;;;;;13.95;6.82;;;;;;;;;;4880319;29;20392;-24
2021/01/22 03:44:53;;;;;;;13.50;4.95;;;;;;;;;;4897151;29;20113;-23
2021/01/22 03:47:18;;;;;;;10.43;5.55;;;;;;;;;;4895989;29;20084;-24
2021/01/22 03:49:44;;;;;;;8.57;3.75;;;;;;;;;;4897768;29;20029;-24
2021/01/22 03:52:09;;;;;;;18.27;6.85;;;;;;;;;;4884154;29;20032;-24
2021/01/22 03:54:34;;;;;;;14.43;6.25;;;;;;;;;;4901344;29;20388;-24
2021/01/22 03:57:00;;;;;;;10.98;6.05;;;;;;;;;;4899623;29;20412;-24
2021/01/22 03:59:25;;;;;;;9.85;4.70;;;;;;;;;;4900961;29;20044;-24
2021/01/22 04:01:50;;;;;;;18.63;6.68;;;;;;;;;;4900882;29;20040;-24
2021/01/22 04:04:16;;;;;;;15.45;5.55;;;;;;;;;;4901022;29;20623;-25
2021/01/22 04:06:41;;;;;;;16.15;6.03;;;;;;;;;;4883945;29;20041;-23
2021/01/22 04:09:07;;;;;;;8.40;4.30;;;;;;;;;;4900379;29;20080;-23
2021/01/22 04:11:32;;;;;;;11.45;5.07;;;;;;;;;;4900651;29;20512;-23
2021/01/22 04:13:58;;;;;;;12.25;5.20;;;;;;;;;;4884112;29;20028;-23
2021/01/22 04:16:23;;;;;;;5.10;2.38;;;;;;;;;;4899315;29;20504;-23
2021/01/22 04:18:48;;;;;;;11.50;5.82;;;;;;;;;;4900378;29;20492;-23
2021/01/22 04:21:14;;;;;;;13.20;5.65;;;;;;;;;;4900613;29;20096;-24
2021/01/22 04:23:39;;;;;;;7.25;4.13;;;;;;;;;;4883674;29;20039;-28
2021/01/22 04:26:04;;;;;;;7.00;3.97;;;;;;;;;;4900523;29;20041;-24
2021/01/22 04:28:30;;;;;;;5.63;3.13;;;;;;;;;;4900379;29;20032;-23
2021/01/22 04:30:55;;;;;;;7.78;3.88;;;;;;;;;;4867880;29;20480;-23
2021/01/22 04:33:21;;;;;;;10.15;4.30;;;;;;;;;;4900368;29;20036;-24
2021/01/22 04:35:46;;;;;;;3.83;2.35;;;;;;;;;;4900234;29;20411;-24
2021/01/22 04:38:11;;;;;;;6.40;3.70;;;;;;;;;;4900315;29;20080;-27
2021/01/22 04:40:37;;;;;;;5.75;2.97;;;;;;;;;;4900292;29;20040;-24
2021/01/22 04:43:02;;;;;;;5.65;3.00;;;;;;;;;;4900203;29;20060;-24
2021/01/22 04:45:28;;;;;;;6.30;2.45;;;;;;;;;;4900202;29;20490;-24
2021/01/22 04:47:53;;;;;;;6.47;2.70;;;;;;;;;;4883147;29;20091;-24
2021/01/22 04:50:18;;;;;;;7.82;2.75;;;;;;;;;;4883159;29;20111;-24
2021/01/22 04:52:45;;;;;;;10.32;2.88;;;;;;;;;;4900223;29;20036;-24
2021/01/22 04:55:14;;;;;;;8.27;2.00;;;;;;;;;;4900030;29;20031;-24
2021/01/22 04:57:43;;;;;;;5.43;2.38;;;;;;;;;;4900113;29;20427;-23
2021/01/22 05:00:10;;;;;;;4.18;2.47;;;;;;;;;;4900004;29;20028;-23
2021/01/22 05:02:35;;;;;;;4.85;2.97;;;;;;;;;;4899617;29;20036;-23
2021/01/22 05:05:01;;;;;;;8.02;3.05;;;;;;;;;;4883344;29;20028;-23
2021/01/22 05:07:29;;;;;;;2.45;1.33;;;;;;;;;;4900038;29;20056;-23
2021/01/22 05:09:54;;;;;;;8.27;3.80;;;;;;;;;;4899698;29;20116;-23
2021/01/22 05:12:20;;;;;;;3.80;1.70;;;;;;;;;;4899970;29;20065;-23
2021/01/22 05:14:45;;;;;;;1.70;1.55;;;;;;;;;;4899585;29;20048;-24
2021/01/22 05:17:12;;;;;;;8.57;2.42;;;;;;;;;;4882702;29;20048;-23
2021/01/22 05:19:38;;;;;;;4.47;1.60;;;;;;;;;;4899772;29;20115;-23
2021/01/22 05:22:04;;;;;;;3.78;1.70;;;;;;;;;;4899553;29;20058;-23
2021/01/22 05:24:30;;;;;;;4.50;2.25;;;;;;;;;;4899516;29;20729;-23
2021/01/22 05:27:03;;;;;;;7.57;2.75;;;;;;;;;;4882628;29;20135;-23
2021/01/22 05:29:29;;;;;;;3.90;1.75;;;;;;;;;;4899326;29;20061;-23
2021/01/22 05:31:55;;;;;;;5.25;2.50;;;;;;;;;;4899080;29;20468;-23
2021/01/22 05:34:20;;;;;;;7.18;1.98;;;;;;;;;;4882767;29;20029;-27
2021/01/22 05:36:49;;;;;;;6.60;1.88;;;;;;;;;;4882228;29;20476;-23
2021/01/22 05:39:24;;;;;;;6.20;1.90;;;;;;;;;;4899180;29;20043;-23
2021/01/22 05:41:50;;;;;;;1.38;1.05;;;;;;;;;;4882505;29;20032;-24
2021/01/22 05:44:19;;;;;;;0.40;0.40;;;;;;;;;;4899144;29;20046;-23
2021/01/22 05:46:58;;;;;;;10.85;2.03;;;;;;;;;;4899254;29;20029;-24
2021/01/22 05:49:24;;;;;;;5.68;2.30;;;;;;;;;;4899362;29;20068;-23
2021/01/22 05:51:51;;;;;;;3.63;1.40;;;;;;;;;;4897405;29;20060;-22
2021/01/22 05:54:36;;;;;;;5.63;2.45;;;;;;;;;;4898993;29;20666;-23
2021/01/22 05:57:02;;;;;;;2.78;1.33;;;;;;;;;;4898829;29;20040;-24
2021/01/22 05:59:27;;;;;;;6.13;2.22;;;;;;;;;;4898899;29;20084;-23
2021/01/22 06:01:52;;;;;;;4.22;1.70;;;;;;;;;;4898701;29;20044;-23
2021/01/22 06:04:18;;;;;;;6.82;1.90;;;;;;;;;;4898698;29;20045;-23
2021/01/22 06:06:43;;;;;;;1.58;1.48;;;;;;;;;;4898677;29;20043;-23
2021/01/22 06:09:09;;;;;;;7.55;1.90;;;;;;;;;;4898710;29;20112;-23
2021/01/22 06:11:35;;;;;;;7.10;1.67;;;;;;;;;;4898474;29;20044;-23
2021/01/22 06:14:04;;;;;;;5.13;1.30;;;;;;;;;;4897923;29;20137;-23
2021/01/22 06:16:29;;;;;;;3.85;1.58;;;;;;;;;;4898438;29;20140;-24
2021/01/22 06:18:54;;;;;;;4.03;1.38;;;;;;;;;;4898455;29;20119;-23
2021/01/22 06:21:22;;;;;;;4.97;1.77;;;;;;;;;;4898362;29;20036;-24
2021/01/22 06:23:48;;;;;;;2.83;1.13;;;;;;;;;;4881488;29;20123;-25
2021/01/22 06:26:14;;;;;;;9.20;1.63;;;;;;;;;;4881523;29;20613;-24
2021/01/22 06:28:40;;;;;;;4.78;2.03;;;;;;;;;;4898168;29;20036;-24
2021/01/22 06:31:06;;;;;;;4.82;1.45;;;;;;;;;;4881236;29;20504;-23
2021/01/22 06:33:33;;;;;;;3.28;1.65;;;;;;;;;;4898107;29;20040;-23
2021/01/22 06:35:58;;;;;;;3.67;0.98;;;;;;;;;;4881468;29;20048;-23
2021/01/22 06:38:24;;;;;;;5.38;0.55;;;;;;;;;;4898240;29;20039;-23
2021/01/22 06:40:49;;;;;;;2.28;1.02;;;;;;;;;;4898098;29;20036;-22
2021/01/22 06:43:15;;;;;;;9.82;2.38;;;;;;;;;;4898113;29;20028;-22
2021/01/22 06:45:40;;;;;;;5.35;1.40;;;;;;;;;;4897987;29;20032;-23
2021/01/22 06:48:07;;;;;;;6.53;2.25;;;;;;;;;;4897952;29;20063;-23
2021/01/22 06:50:33;;;;;;;4.85;1.58;;;;;;;;;;4897884;29;20041;-23
2021/01/22 06:53:15;;;;;;;12.40;2.08;;;;;;;;;;4881079;29;20049;-22
2021/01/22 06:55:52;;;;;;;0.32;0.32;;;;;;;;;;4897918;29;20036;-23
2021/01/22 06:58:31;;;;;;;4.22;1.38;;;;;;;;;;4897919;29;20068;-23
2021/01/22 07:00:57;;;;;;;4.95;2.08;;;;;;;;;;4897638;29;20138;-23
2021/01/22 07:03:37;;;;;;;4.70;1.75;;;;;;;;;;4897738;29;20040;-23
2021/01/22 07:06:03;;;;;;;5.30;1.98;;;;;;;;;;4897991;29;20042;-22
2021/01/22 07:08:47;;;;;;;5.25;2.25;;;;;;;;;;4880838;29;20411;-22
2021/01/22 07:11:13;;;;;;;4.80;1.80;;;;;;;;;;4897553;29;20043;-23
2021/01/22 07:13:39;;;;;;;3.65;1.48;;;;;;;;;;4897577;29;20032;-22
2021/01/22 07:16:08;;;;;;;4.68;2.47;;;;;;;;;;4897293;29;20064;-21
2021/01/22 07:18:34;;;;;;;5.30;1.30;;;;;;;;;;4897502;29;20383;-22
2021/01/22 07:21:18;;;;;;;2.13;1.80;;;;;;;;;;4880726;29;20054;-23
2021/01/22 07:23:45;;;;;;;2.78;1.50;;;;;;;;;;4897156;29;20030;-21
2021/01/22 07:26:12;;;;;;;8.95;1.65;;;;;;;;;;4880265;29;20089;-22
2021/01/22 07:28:48;;;;;;;2.88;1.63;;;;;;;;;;4896005;29;20032;-21
2021/01/22 07:31:33;;;;;;;6.82;1.95;;;;;;;;;;4897224;29;20051;-22
2021/01/22 07:33:59;;;;;;;4.20;1.83;;;;;;;;;;4880188;29;20403;-22
2021/01/22 07:36:24;;;;;;;9.55;2.45;;;;;;;;;;4897504;29;20040;-22
2021/01/22 07:38:50;;;;;;;5.78;2.15;;;;;;;;;;4897204;29;20463;-21
2021/01/22 07:41:19;;;;;;;17.10;3.45;;;;;;;;;;4897170;29;20040;-21
2021/01/22 07:43:45;;;;;;;11.20;3.15;;;;;;;;;;4897138;29;20411;-22
2021/01/22 07:46:11;;;;;;;6.50;2.10;;;;;;;;;;4897152;29;20024;-22
2021/01/22 07:48:37;;;;;;;6.63;2.22;;;;;;;;;;4897137;29;20544;-21
2021/01/22 07:51:21;;;;;;;16.83;3.13;;;;;;;;;;4897140;29;20032;-20
2021/01/22 07:53:54;;;;;;;9.63;2.70;;;;;;;;;;4897028;29;20071;-22
2021/01/22 07:56:20;;;;;;;8.93;2.13;;;;;;;;;;4897058;29;20044;-22
2021/01/22 07:58:45;;;;;;;8.75;1.83;;;;;;;;;;4896906;29;20043;-23
2021/01/22 08:01:20;;;;;;;11.40;2.25;;;;;;;;;;4897300;29;20043;-23
2021/01/22 08:03:46;;;;;;;4.88;2.15;;;;;;;;;;4897027;29;20111;-23
2021/01/22 08:06:11;;;;;;;7.57;2.08;;;;;;;;;;4896991;29;20069;-23
2021/01/22 08:08:36;;;;;;;8.05;1.60;;;;;;;;;;4896944;29;20052;-23
2021/01/22 08:11:16;;;;;;;2.45;1.33;;;;;;;;;;4897274;29;20039;-23
2021/01/22 08:13:42;;;;;;;8.88;2.53;;;;;;;;;;4896927;29;20528;-23
2021/01/22 08:16:07;;;;;;;0.28;0.28;;;;;;;;;;4879999;29;20036;-22
2021/01/22 08:18:34;;;;;;;11.48;2.45;;;;;;;;;;4896689;29;20487;-22
2021/01/22 08:20:59;;;;;;;5.93;2.08;;;;;;;;;;4880380;29;20123;-22
2021/01/22 08:23:30;;;;;;;7.13;2.15;;;;;;;;;;4895649;29;20574;-23
2021/01/22 08:25:59;;;;;;;9.02;3.08;;;;;;;;;;4895587;29;20047;-22
2021/01/22 08:28:26;;;;;;;10.38;3.58;;;;;;;;;;4879967;29;20036;-23
2021/01/22 08:30:51;;;;;;;12.40;3.22;;;;;;;;;;4864347;29;20049;-22
2021/01/22 08:33:17;;;;;;;7.88;2.90;;;;;;;;;;4895547;29;20506;-22
2021/01/22 08:35:44;;;;;;;7.53;3.55;;;;;;;;;;4897246;29;20111;-23
2021/01/22 08:38:11;;;;;;;10.85;3.53;;;;;;;;;;4900597;29;20043;-22
2021/01/22 08:40:41;;;;;;;10.65;2.72;;;;;;;;;;4900079;29;20108;-22
2021/01/22 08:43:12;;;;;;;8.27;2.70;;;;;;;;;;4900252;29;20120;-22
2021/01/22 08:45:38;;;;;;;6.07;2.85;;;;;;;;;;4900171;29;20108;-22
2021/01/22 08:48:07;;;;;;;16.13;4.35;;;;;;;;;;4900056;29;20064;-22
2021/01/22 08:50:33;;;;;;;7.40;3.53;;;;;;;;;;4883087;29;20033;-23
2021/01/22 08:53:06;;;;;;;5.07;3.17;;;;;;;;;;4898501;29;20080;-22
2021/01/22 08:55:32;;;;;;;6.95;2.25;;;;;;;;;;4899979;29;20028;-21
2021/01/22 08:58:09;;;;;;;6.30;2.92;;;;;;;;;;4883063;29;20047;-22
2021/01/22 09:00:35;;;;;;;15.45;3.35;;;;;;;;;;4899854;29;20507;-23
2021/01/22 09:03:00;;;;;;;5.88;2.67;;;;;;;;;;4882966;29;20033;-22
2021/01/22 09:05:26;;;;;;;12.10;2.90;;;;;;;;;;4899849;29;20306;-22
2021/01/22 09:08:12;;;;;;;10.15;3.13;;;;;;;;;;4899687;29;20033;-22
2021/01/22 09:10:47;;;;;;;13.55;3.00;;;;;;;;;;4899641;29;20040;-23
2021/01/22 09:13:13;;;;;;;11.52;3.47;;;;;;;;;;4882883;29;20037;-23
2021/01/22 09:15:39;;;;;;;11.18;3.63;;;;;;;;;;4899538;29;20069;-22
2021/01/22 09:18:15;;;;;;;7.18;3.65;;;;;;;;;;4899233;29;20048;-23
2021/01/22 09:20:41;;;;;;;6.63;2.80;;;;;;;;;;4899187;29;20036;-22
2021/01/22 09:23:07;;;;;;;4.90;2.38;;;;;;;;;;4557635;29;10000420;-24
2021/01/22 09:25:32;;;;;;;13.48;5.47;;;;;;;;;;4879043;29;20135;-24
2021/01/22 09:28:00;;;;;;;10.25;4.90;;;;;;;;;;4895699;29;20039;-25
2021/01/22 09:30:28;;;;;;;6.88;3.88;;;;;;;;;;4894192;29;20060;-25
2021/01/22 09:32:56;;;;;;;9.52;4.72;;;;;;;;;;4895262;29;20033;-25
2021/01/22 09:35:23;;;;;;;13.77;3.47;;;;;;;;;;4895666;29;20112;-24
2021/01/22 09:37:49;;;;;;;10.40;4.10;;;;;;;;;;4895409;29;20505;-25
2021/01/22 09:40:15;;;;;;;11.20;3.45;;;;;;;;;;4895972;29;20100;-24
2021/01/22 09:42:40;;;;;;;8.50;2.92;;;;;;;;;;4895636;29;20476;-25
2021/01/22 09:45:07;;;;;;;6.60;3.05;;;;;;;;;;4895630;29;20036;-25
2021/01/22 09:47:32;;;;;;;10.23;3.30;;;;;;;;;;4894712;29;20497;-24
2021/01/22 09:49:57;;;;;;;10.02;3.22;;;;;;;;;;4895881;29;20108;-23
2021/01/22 09:52:23;;;;;;;12.70;3.80;;;;;;;;;;4897207;29;20124;-23
2021/01/22 09:54:48;;;;;;;10.68;3.72;;;;;;;;;;4881300;29;20101;-23
2021/01/22 09:57:14;;;;;;;9.10;3.38;;;;;;;;;;4878678;29;20396;-23
2021/01/22 09:59:39;;;;;;;8.23;3.38;;;;;;;;;;4895030;29;20494;-23
2021/01/22 10:02:05;;;;;;;5.53;3.42;;;;;;;;;;4895330;29;20051;-23
2021/01/22 10:04:30;;;;;;;7.85;3.53;;;;;;;;;;4860014;29;20037;-21
2021/01/22 10:06:56;;;;;;;6.15;3.33;;;;;;;;;;4895180;29;20044;-22
2021/01/22 10:09:21;;;;;;;11.75;3.35;;;;;;;;;;4895197;29;20028;-21
2021/01/22 10:11:47;;;;;;;9.07;3.10;;;;;;;;;;4895187;29;20037;-22
2021/01/22 10:14:12;;;;;;;5.53;2.88;;;;;;;;;;4894984;29;20374;-22
2021/01/22 10:16:38;;;;;;;10.73;3.75;;;;;;;;;;4894805;29;20075;-22
2021/01/22 10:19:03;;;;;;;10.73;3.70;;;;;;;;;;4894910;29;20376;-22
2021/01/22 10:21:29;;;;;;;9.60;3.50;;;;;;;;;;4894406;29;20496;-22
2021/01/22 10:23:54;;;;;;;6.47;3.08;;;;;;;;;;4877602;29;20573;-21
2021/01/22 10:26:20;;;;;;;13.25;3.60;;;;;;;;;;4894974;29;20036;-22
2021/01/22 10:28:47;;;;;;;9.48;4.22;;;;;;;;;;4893742;29;20032;-22
2021/01/22 10:31:12;;;;;;;7.15;3.55;;;;;;;;;;4878053;29;20067;-22
2021/01/22 10:33:38;;;;;;;6.68;3.33;;;;;;;;;;4894105;29;20125;-22
2021/01/22 10:36:04;;;;;;;12.60;3.85;;;;;;;;;;4894659;29;20036;-23
2021/01/22 10:38:30;;;;;;;10.95;3.60;;;;;;;;;;4894508;29;20111;-22
2021/01/22 10:40:56;;;;;;;9.85;4.00;;;;;;;;;;4894286;29;20128;-23
2021/01/22 10:43:22;;;;;;;5.78;2.63;;;;;;;;;;4894469;29;20131;-22
2021/01/22 10:45:47;;;;;;;7.00;2.97;;;;;;;;;;4894348;29;20733;-22
2021/01/22 10:48:13;;;;;;;8.50;3.10;;;;;;;;;;4894899;29;20027;-24
2021/01/22 10:50:38;;;;;;;10.18;3.88;;;;;;;;;;4894028;29;20624;-21
2021/01/22 10:53:04;;;;;;;6.13;3.25;;;;;;;;;;4894588;29;20031;-23
2021/01/22 10:55:29;;;;;;;6.93;3.30;;;;;;;;;;4894273;29;20540;-22
2021/01/22 10:57:55;;;;;;;7.45;4.13;;;;;;;;;;4893783;29;20278;-22
2021/01/22 11:00:20;;;;;;;137.88;54.03;;;;;;;;;;4894479;29;20036;-23
2021/01/22 11:02:46;;;;;;;17.88;5.90;;;;;;;;;;4877713;29;20403;-21
2021/01/22 11:05:11;;;;;;;9.00;3.85;;;;;;;;;;4876996;29;20089;-22
2021/01/22 11:07:37;;;;;;;8.30;4.03;;;;;;;;;;4894459;29;20034;-22
2021/01/22 11:10:04;;;;;;;7.68;4.43;;;;;;;;;;4877276;29;20519;-22
2021/01/22 11:12:29;;;;;;;6.63;3.08;;;;;;;;;;4894406;29;20039;-24
2021/01/22 11:14:54;;;;;;;14.93;4.70;;;;;;;;;;4894644;29;20029;-22
2021/01/22 11:17:20;;;;;;;8.57;4.20;;;;;;;;;;4894234;29;20076;-22
2021/01/22 11:19:45;;;;;;;10.70;3.60;;;;;;;;;;4894471;29;20444;-21
2021/01/22 11:22:12;;;;;;;10.43;5.18;;;;;;;;;;4893827;29;20036;-21
2021/01/22 11:24:37;;;;;;;10.38;4.80;;;;;;;;;;4877132;29;20115;-21
2021/01/22 11:27:03;;;;;;;14.45;5.38;;;;;;;;;;4894221;29;20108;-22
2021/01/22 11:29:28;;;;;;;14.00;5.60;;;;;;;;;;4893860;29;20035;-22
2021/01/22 11:31:54;;;;;;;10.30;4.07;;;;;;;;;;4893996;29;20504;-22
2021/01/22 11:34:19;;;;;;;13.70;4.80;;;;;;;;;;4893675;29;20032;-23
2021/01/22 11:36:45;;;;;;;10.50;4.88;;;;;;;;;;4894129;29;20044;-22
2021/01/22 11:39:10;;;;;;;18.55;6.53;;;;;;;;;;4894008;29;20062;-23
2021/01/22 11:41:35;;;;;;;11.05;6.10;;;;;;;;;;4893909;29;20036;-22
2021/01/22 11:44:01;;;;;;;9.98;4.70;;;;;;;;;;4893842;29;20101;-22
2021/01/22 11:46:26;;;;;;;10.05;4.82;;;;;;;;;;4893267;29;20111;-24
2021/01/22 11:48:52;;;;;;;11.63;5.00;;;;;;;;;;4876846;29;20464;-23
2021/01/22 11:51:18;;;;;;;13.50;5.93;;;;;;;;;;4893374;29;20484;-23
2021/01/22 11:53:44;;;;;;;6.95;3.25;;;;;;;;;;4893463;29;20104;-22
2021/01/22 11:56:10;;;;;;;17.45;6.50;;;;;;;;;;4876815;29;20044;-22
2021/01/22 11:58:35;;;;;;;12.52;4.70;;;;;;;;;;4893519;29;20076;-21
2021/01/22 12:01:01;;;;;;;12.30;3.65;;;;;;;;;;4893575;29;20036;-23
2021/01/22 12:03:26;;;;;;;5.88;2.67;;;;;;;;;;4893893;29;20036;-23
2021/01/22 12:05:51;;;;;;;6.05;3.20;;;;;;;;;;4876939;29;20437;-22
2021/01/22 12:08:17;;;;;;;8.70;4.32;;;;;;;;;;4892950;29;20082;-24
2021/01/22 12:10:42;;;;;;;9.48;3.78;;;;;;;;;;4893032;29;20517;-23
2021/01/22 12:13:08;;;;;;;11.65;4.65;;;;;;;;;;4897120;29;20075;-22
2021/01/22 12:15:33;;;;;;;9.50;4.78;;;;;;;;;;4880298;29;20654;-22
2021/01/22 12:18:00;;;;;;;8.75;4.68;;;;;;;;;;4864514;29;20045;-23
2021/01/22 12:20:25;;;;;;;14.57;6.15;;;;;;;;;;4896815;29;20020;-24
2021/01/22 12:22:51;;;;;;;11.88;6.95;;;;;;;;;;4896956;29;20131;-24
2021/01/22 12:25:16;;;;;;;15.30;6.95;;;;;;;;;;4880561;29;20037;-24
2021/01/22 12:27:42;;;;;;;13.43;5.45;;;;;;;;;;4897346;29;20078;-24
2021/01/22 12:30:07;;;;;;;11.02;5.57;;;;;;;;;;4896918;29;20043;-25
2021/01/22 12:32:33;;;;;;;13.38;5.57;;;;;;;;;;4897135;29;20046;-25
2021/01/22 12:34:58;;;;;;;11.75;6.80;;;;;;;;;;4896657;29;20033;-25
2021/01/22 12:37:24;;;;;;;9.85;5.93;;;;;;;;;;4880360;29;20666;-24
2021/01/22 12:39:49;;;;;;;12.25;5.45;;;;;;;;;;4880163;29;20037;-25
2021/01/22 12:42:14;;;;;;;14.27;5.07;;;;;;;;;;4897267;29;20116;-24
2021/01/22 12:44:40;;;;;;;12.25;6.18;;;;;;;;;;4897141;29;20108;-23
2021/01/22 12:47:05;;;;;;;11.73;5.50;;;;;;;;;;4896799;29;20437;-23
2021/01/22 12:49:31;;;;;;;14.40;5.43;;;;;;;;;;4897115;29;20486;-24
2021/01/22 12:51:56;;;;;;;15.18;5.35;;;;;;;;;;4879973;29;20033;-23
2021/01/22 12:54:21;;;;;;;11.32;6.03;;;;;;;;;;4879831;29;20652;-23
2021/01/22 12:56:47;;;;;;;13.15;5.68;;;;;;;;;;4896423;29;20044;-24
2021/01/22 12:59:12;;;;;;;12.48;5.00;;;;;;;;;;4896407;29;20033;-23
2021/01/22 13:01:38;;;;;;;12.82;6.20;;;;;;;;;;4896864;29;20044;-23
2021/01/22 13:04:04;;;;;;;13.32;5.50;;;;;;;;;;4896900;29;20559;-22
2021/01/22 13:06:29;;;;;;;9.80;5.35;;;;;;;;;;4896729;29;20040;-22
2021/01/22 13:08:55;;;;;;;11.38;5.65;;;;;;;;;;4896349;29;20093;-22
2021/01/22 13:11:20;;;;;;;10.00;5.13;;;;;;;;;;4879288;29;20095;-23
2021/01/22 13:13:46;;;;;;;11.13;5.25;;;;;;;;;;4896394;29;20068;-24
2021/01/22 13:16:11;;;;;;;16.17;7.15;;;;;;;;;;4896272;29;20041;-23
2021/01/22 13:18:36;;;;;;;13.95;6.20;;;;;;;;;;4879216;29;20035;-23
2021/01/22 13:21:02;;;;;;;14.55;5.25;;;;;;;;;;4896160;29;20396;-23
2021/01/22 13:23:27;;;;;;;10.27;5.63;;;;;;;;;;4896152;29;20087;-23
2021/01/22 13:25:52;;;;;;;13.23;7.45;;;;;;;;;;4896311;29;20036;-24
2021/01/22 13:28:18;;;;;;;16.42;6.20;;;;;;;;;;4896534;29;20597;-24
2021/01/22 13:30:43;;;;;;;14.07;5.70;;;;;;;;;;4895903;29;20060;-23
2021/01/22 13:33:09;;;;;;;13.63;5.80;;;;;;;;;;4895520;29;20028;-23
2021/01/22 13:35:34;;;;;;;15.02;6.68;;;;;;;;;;4895102;29;20124;-24
2021/01/22 13:37:59;;;;;;;12.63;5.80;;;;;;;;;;4894788;29;20092;-24
2021/01/22 13:40:25;;;;;;;13.05;6.18;;;;;;;;;;4895016;29;20029;-24
2021/01/22 13:42:52;;;;;;;10.07;5.72;;;;;;;;;;4894845;29;20408;-24
2021/01/22 13:45:18;;;;;;;12.43;5.53;;;;;;;;;;4877848;29;20032;-23
2021/01/22 13:47:44;;;;;;;14.27;6.38;;;;;;;;;;4894337;29;20037;-23
2021/01/22 13:50:10;;;;;;;12.85;5.95;;;;;;;;;;4894998;29;20512;-23
2021/01/22 13:52:35;;;;;;;14.10;5.93;;;;;;;;;;4894824;29;20068;-23
2021/01/22 13:55:02;;;;;;;15.73;6.18;;;;;;;;;;4894801;29;20100;-24
2021/01/22 13:57:28;;;;;;;14.10;7.18;;;;;;;;;;4893080;29;20049;-24
2021/01/22 13:59:53;;;;;;;15.75;5.85;;;;;;;;;;4894580;29;20032;-24
2021/01/22 14:02:19;;;;;;;18.13;6.60;;;;;;;;;;4894412;29;20539;-23
2021/01/22 14:04:44;;;;;;;12.25;5.88;;;;;;;;;;4894718;29;20068;-23
2021/01/22 14:07:09;;;;;;;12.93;6.40;;;;;;;;;;4894780;29;20396;-24
2021/01/22 14:09:36;;;;;;;12.95;7.03;;;;;;;;;;4894439;29;20029;-23
2021/01/22 14:12:02;;;;;;;19.95;7.82;;;;;;;;;;4850226;29;20520;-24
2021/01/22 14:14:27;;;;;;;15.63;7.15;;;;;;;;;;4876237;29;20065;-24
2021/01/22 14:16:53;;;;;;;17.48;7.47;;;;;;;;;;4874536;29;20052;-23
2021/01/22 14:19:18;;;;;;;13.60;6.15;;;;;;;;;;4843879;29;20208;-24
2021/01/22 14:21:43;;;;;;;14.63;6.80;;;;;;;;;;4875251;29;20034;-22
2021/01/22 14:24:09;;;;;;;9.93;5.68;;;;;;;;;;4858821;29;20052;-23
2021/01/22 14:26:34;;;;;;;11.23;5.90;;;;;;;;;;4874002;29;20152;-23
2021/01/22 14:29:00;;;;;;;15.63;6.18;;;;;;;;;;4875706;29;20044;-23
2021/01/22 14:31:25;;;;;;;9.73;5.05;;;;;;;;;;4854292;29;646608;-22